METAR stanice u blizini

 

LYBE - Beograd / Surčin, Srbija
Ažurirano: 27/01/2020 21:30
Mist, Delimično oblačno
Mist, Delimično oblačno
 Pravac vetra J
Vetar: J 7 km/h
Temperatura: 3°C
Osećaj hladnoće: 1°C
Tačka rose: 2°C
Vlažnost: 93%
Pritisak: 1018 hPa
Pregled: Mist
Oblaci: Partly Cloudy
Vidljivost: 2 km
2020/01/27 20:30 LYBE 272030Z 19004KT 2200 BR NSC 03/02 Q1018 TEMPO 1000
LYBT - Beograd / Batajnica, Srbija
Ažurirano: 27/01/2020 21:30
Mist, Oblačno
Mist, Oblačno
 Pravac vetra JJI
Vetar: JJI 6 km/h
Temperatura: 2°C
Tačka rose: 2°C
Vlažnost: 100%
Pritisak: 1018 hPa
Pregled: Mist
Oblaci: Oblačno
Vidljivost: 3 km
Cloud details: Oblačno 152 m
2020/01/27 20:30 LYBT 272030Z 15003KT 3000 BR OVC005 02/02 Q1018 NOSIG
LYVR - Vršac, Srbija
Ažurirano: 27/01/2020 21:30
Mist, Oblačno
Mist, Oblačno
 Pravac vetra JZ
Vetar: JZ 6 km/h
Temperatura: 3°C
Tačka rose: 3°C
Vlažnost: 100%
Pritisak: 1019 hPa
Pregled: Mist
Oblaci: Oblačno
Vidljivost: 4 km
Cloud details: Oblačno 91 m
2020/01/27 20:30 LYVR 272030Z AUTO 23003KT 3500 BR OVC003/// 03/03 Q1019
 
LYKV - Lađevci, Srbija
Ažurirano: 27/01/2020 21:30
Mist, Oblačno
Mist, Oblačno
 Pravac vetra varies
Vetar: varies 2 km/h
Temperatura: 4°C
Tačka rose: 4°C
Vlažnost: 100%
Pritisak: 1019 hPa
Pregled: Mist
Oblaci: Oblačno
Vidljivost: 2 km
Cloud details: Partly Cloudy 518 m
Oblačno 914 m
2020/01/27 20:30 LYKV 272030Z VRB01KT 2000 BR SCT017 OVC030 04/04 Q1019 NOSIG
LYNI - Niš, Srbija
Ažurirano: 27/01/2020 21:30
Oblačno
Oblačno
 Pravac vetra varies
Vetar: varies 15 km/h
Temperatura: 4°C
Osećaj hladnoće: 1°C
Tačka rose: 3°C
Vlažnost: 93%
Pritisak: 1019 hPa
Oblaci: Oblačno
Vidljivost: 8 km
Cloud details: Partly Cloudy 152 m
Oblačno 244 m
2020/01/27 20:30 LYNI 272030Z VRB08KT 8000 SCT005 OVC008 04/03 Q1019 NOSIG
BKPR - Priština, Srbija
Ažurirano: 27/01/2020 21:30
Mostly Cloudy
Mostly Cloudy
 Pravac vetra S
Vetar: S 9 km/h
Temperatura: 5°C
Osećaj hladnoće: 3°C
Tačka rose: 2°C
Vlažnost: 81%
Pritisak: 1017 hPa
Oblaci: Mostly Cloudy
Vidljivost: 10 km
Cloud details: Few Clouds 1219 m
Mostly Cloudy 2134 m
2020/01/27 20:30 BKPR 272030Z 35005KT 9999 FEW040 BKN070 05/02 Q1017 NOSIG RMK 17010095
 
LHPP - Pecs / Pogany, Hungary
Ažurirano: 27/01/2020 18:45
NOT Current
Magla, Oblačno
Magla, Oblačno
 Pravac vetra Z
Vetar: Z 7 km/h
Temperatura: 1°C
Osećaj hladnoće: -2°C
Tačka rose: 1°C
Vlažnost: 100%
Pritisak: 1017 hPa
Pregled: Magla
Oblaci: Oblačno
Vidljivost: 0 km
Cloud details: Oblačno 152 m
2020/01/27 17:45 LHPP 271745Z 26004KT 0300 FG OVC005 01/01 Q1017
LHUD - Szeged, Hungary
Ažurirano: 04/07/2019 01:45
NOT Current
Vedro
Vedro
 Pravac vetra S
Vetar: S 7 km/h
Temperatura: 18°C
Tačka rose: 13°C
Vlažnost: 73%
Pritisak: 1019 hPa
Pregled: Vedro
Vidljivost: greater than 10 km
2019/07/03 23:45 LHUD 032345Z 35004KT CAVOK 18/13 Q1019
LRTR - Timisoara, Romania
Ažurirano: 27/01/2020 21:30
Mist, Oblačno
Mist, Oblačno
 Pravac vetra ZJZ
Vetar: ZJZ 4 km/h
Temperatura: 2°C
Tačka rose: 2°C
Vlažnost: 100%
Pritisak: 1018 hPa
Pregled: Mist
Oblaci: Oblačno
Vidljivost: 2 km
Cloud details: Partly Cloudy 122 m
Mostly Cloudy 335 m
Oblačno 853 m
2020/01/27 20:30 LRTR 272030Z 25002KT 2000 BR SCT004 BKN011 OVC028 02/02 Q1018 R11/290095
 
LRCV - Craiova, Romania
Ažurirano: 27/01/2020 21:30
Mist, Oblačno
Mist, Oblačno
 Pravac vetra ZJZ
Vetar: ZJZ 9 km/h
Temperatura: 4°C
Osećaj hladnoće: 2°C
Tačka rose: 4°C
Vlažnost: 100%
Pritisak: 1015 hPa
Pregled: Mist
Oblaci: Oblačno
Vidljivost: 2 km
Cloud details: Oblačno 91 m
2020/01/27 20:30 LRCV 272030Z 25005KT 2000 BR OVC003 04/04 Q1015 R27/29//95
LBSF - Sofia, Bulgaria
Ažurirano: 27/01/2020 21:30
Oblačno
Oblačno
 Pravac vetra Z
Vetar: Z 15 km/h
Temperatura: 5°C
Osećaj hladnoće: 2°C
Tačka rose: 3°C
Vlažnost: 87%
Pritisak: 1016 hPa
Oblaci: Oblačno
Vidljivost: 10 km
Cloud details: Oblačno 914 m
2020/01/27 20:30 LBSF 272030Z 28008KT 9999 OVC030 05/03 Q1016 R99/29//95 NOSIG
LWSK - Skoplje, Makedonija
Ažurirano: 27/01/2020 21:30
Magla, Pretežno oblačno
Magla, Pretežno oblačno
 Pravac vetra calm
Vetar: Tišina
Temperatura: 4°C
Tačka rose: 4°C
Vlažnost: 100%
Pritisak: 1018 hPa
Pregled: Magla
Oblaci: Mostly Cloudy
Vidljivost: 0 km
Cloud details: Mostly Cloudy 122 m
2020/01/27 20:30 LWSK 272030Z 00000KT 0250 FG BKN004 04/04 Q1018 NOSIG
 
LYPG - Podgorica, Crna Gora
Ažurirano: 27/01/2020 21:30
Partly Cloudy
Partly Cloudy
 Pravac vetra varies
Vetar: varies 4 km/h
Temperatura: 7°C
Tačka rose: 7°C
Vlažnost: 100%
Pritisak: 1018 hPa
Oblaci: Partly Cloudy
Vidljivost: 6 km
Cloud details: Few Clouds 610 m
Partly Cloudy 1524 m
2020/01/27 20:30 LYPG 272030Z VRB02KT 6000 FEW020 SCT050 07/07 Q1018 NOSIG
LQSA - Sarajevo, Bosna i Hercegovina
Ažurirano: 27/01/2020 21:00
Magla, Oblačno
Magla, Oblačno
 Pravac vetra varies
Vetar: varies 4 km/h
Temperatura: 3°C
Tačka rose: 3°C
Vlažnost: 100%
Pritisak: 1018 hPa
Pregled: Magla
Oblaci: Oblačno
Vidljivost: 0 km
Cloud details: Oblačno 30 m
2020/01/27 20:00 LQSA 272000Z VRB02KT 0100 R11/0175N FG VV001 03/03 Q1018
LDOS - Osijek, Hrvatksa
Ažurirano: 27/01/2020 21:30
Oblačno
Oblačno
 Pravac vetra JJZ
Vetar: JJZ 9 km/h
Temperatura: 3°C
Osećaj hladnoće: 0°C
Tačka rose: 2°C
Vlažnost: 93%
Pritisak: 1018 hPa
Oblaci: Oblačno
Vidljivost: 6 km
Cloud details: Oblačno 91 m
2020/01/27 20:30 LDOS 272030Z 20005KT 6000 OVC003 03/02 Q1018